Time;durP1;ratioP1;P1;durP2;ratioP2;P2;SDS_P1;SDS_P2;PMS_P1;PMS_P2;Temp;Humidity;BMP_temperature;BMP_pressure;BME280_temperature;BME280_humidity;BME280_pressure;Samples;Min_cycle;Max_cycle;Signal;HPM_P1;HPM_P2
2021/05/26 00:01:42;;;;;;;13.35;6.55;;;12.60;99.90;;;12.99;74.88;101097.69;5094712;28;20128;-71
2021/05/26 00:04:12;;;;;;;17.27;6.65;;;12.70;99.90;;;13.04;75.32;101096.78;5076712;28;20036;-71
2021/05/26 00:06:40;;;;;;;26.20;8.30;;;12.80;99.90;;;12.96;78.47;101071.16;5094646;28;20036;-71
2021/05/26 00:09:08;;;;;;;28.45;8.93;;;12.80;99.90;;;12.96;81.24;101069.38;5094802;28;20044;-71
2021/05/26 00:11:41;;;;;;;38.08;9.60;;;12.80;99.90;;;12.96;82.05;101084.44;5094611;28;20040;-71
2021/05/26 00:14:10;;;;;;;32.28;9.93;;;12.80;99.90;;;12.98;83.37;101090.63;5094768;28;20043;-71
2021/05/26 00:16:38;;;;;;;29.13;9.43;;;12.70;99.90;;;13.02;84.01;101090.56;5076513;28;20074;-71
2021/05/26 00:19:07;;;;;;;26.27;8.40;;;12.70;99.90;;;13.05;83.92;101093.22;5094464;28;20131;-71
2021/05/26 00:21:36;;;;;;;26.20;9.00;;;12.80;99.90;;;13.00;84.31;101081.75;5094631;28;20047;-72
2021/05/26 00:24:07;;;;;;;19.63;8.18;;;12.70;99.90;;;12.90;84.44;101077.41;5094245;28;20040;-72
2021/05/26 00:26:35;;;;;;;18.05;7.30;;;12.70;99.90;;;12.93;84.16;101074.72;5094627;28;20401;-71
2021/05/26 00:29:03;;;;;;;23.70;7.43;;;12.60;99.90;;;12.91;84.12;101067.69;5094094;28;20048;-71
2021/05/26 00:31:31;;;;;;;18.52;7.40;;;12.60;99.90;;;12.74;83.70;101033.34;5075947;28;20089;-71
2021/05/26 00:33:59;;;;;;;16.98;6.88;;;12.60;99.90;;;12.93;84.21;101057.94;5076100;28;20059;-72
2021/05/26 00:36:27;;;;;;;21.27;7.50;;;12.60;99.90;;;12.90;84.83;101074.75;5093716;28;20040;-71
2021/05/26 00:38:56;;;;;;;24.42;7.47;;;12.60;99.90;;;12.75;85.71;101072.28;5094142;28;20052;-70
2021/05/26 00:41:28;;;;;;;20.70;7.80;;;12.50;99.90;;;12.64;86.01;101072.38;5075993;28;20544;-70
2021/05/26 00:43:56;;;;;;;25.98;9.05;;;12.40;99.90;;;12.81;86.40;101092.56;5094170;28;20134;-69
2021/05/26 00:46:25;;;;;;;20.02;7.60;;;12.50;99.90;;;12.34;83.86;101093.00;5094152;28;20055;-70
2021/05/26 00:48:53;;;;;;;12.93;5.75;;;12.20;99.90;;;11.82;82.24;101070.38;5093811;28;20382;-70
2021/05/26 00:51:21;;;;;;;12.35;6.88;;;11.70;99.90;;;11.83;82.95;101069.50;5075813;28;20044;-70
2021/05/26 00:53:49;;;;;;;11.95;6.43;;;11.60;99.90;;;11.82;82.91;101075.69;5093972;28;20374;-70
2021/05/26 00:56:18;;;;;;;18.55;7.25;;;11.60;99.90;;;11.78;83.10;101072.19;5075492;28;20047;-70
2021/05/26 00:58:46;;;;;;;13.40;7.30;;;11.60;99.90;;;11.76;84.73;101072.19;5093899;28;20040;-70
2021/05/26 01:01:14;;;;;;;16.10;8.38;;;11.50;99.90;;;11.81;84.09;101071.28;5093816;28;20101;-70
2021/05/26 01:03:42;;;;;;;14.52;7.13;;;11.50;99.90;;;11.92;83.78;101072.97;5075282;28;20051;-70
2021/05/26 01:06:10;;;;;;;18.30;7.30;;;11.60;99.90;;;12.07;84.16;101082.59;5075480;28;20105;-70
2021/05/26 01:08:39;;;;;;;20.02;8.52;;;11.80;99.90;;;12.17;85.54;101068.38;5093737;28;20397;-70
2021/05/26 01:11:08;;;;;;;18.27;8.05;;;11.90;99.90;;;12.30;86.20;101075.34;5075110;28;20051;-69
2021/05/26 01:13:39;;;;;;;20.95;7.15;;;12.00;99.90;;;12.41;86.65;101068.16;5075439;28;20500;-70
2021/05/26 01:16:09;;;;;;;20.48;8.27;;;12.10;99.90;;;12.47;86.91;101065.44;5093490;28;20060;-70
2021/05/26 01:18:37;;;;;;;24.60;8.10;;;12.20;99.90;;;12.41;86.41;101066.38;5075128;28;20051;-70
2021/05/26 01:21:35;;;;;;;16.58;7.07;;;12.10;99.90;;;12.44;86.11;101065.50;5083421;28;20048;-70
2021/05/26 01:24:05;;;;;;;12.93;6.95;;;12.10;99.90;;;12.41;85.17;101065.50;5075316;28;20056;-70
2021/05/26 01:26:36;;;;;;;11.95;7.13;;;12.10;99.90;;;12.52;84.42;101055.69;5074761;28;20072;-70
2021/05/26 01:29:04;;;;;;;15.20;7.65;;;12.20;99.90;;;12.40;83.37;101063.75;5093005;28;20040;-70
2021/05/26 01:31:33;;;;;;;11.15;6.78;;;12.10;99.90;;;12.56;82.73;101063.59;5093296;28;20043;-70
2021/05/26 01:34:06;;;;;;;10.02;5.70;;;12.30;99.90;;;12.46;81.26;101059.28;5093021;28;20081;-70
2021/05/26 01:36:36;;;;;;;8.80;5.68;;;12.20;99.90;;;12.48;80.55;101059.28;5093257;28;20052;-70
2021/05/26 01:39:07;;;;;;;10.20;5.80;;;12.20;99.90;;;12.45;80.23;101065.47;5074838;28;20078;-70
2021/05/26 01:41:35;;;;;;;8.10;5.82;;;12.20;99.90;;;12.58;80.25;101063.59;5092798;28;20282;-70
2021/05/26 01:44:05;;;;;;;8.00;5.88;;;12.30;99.90;;;12.69;79.96;101057.28;5074828;28;20048;-71
2021/05/26 01:46:34;;;;;;;12.48;6.32;;;12.30;99.90;;;12.62;79.81;101037.00;5074579;28;20044;-71
2021/05/26 01:49:03;;;;;;;11.32;6.55;;;12.40;99.90;;;12.74;80.18;101051.91;5074362;28;20404;-71
2021/05/26 01:51:34;;;;;;;11.95;6.82;;;12.40;99.90;;;12.84;79.88;101048.28;5074853;28;20040;-71
2021/05/26 01:54:03;;;;;;;12.50;6.38;;;12.50;99.90;;;12.83;79.40;101043.88;5074731;28;20558;-71
2021/05/26 01:56:33;;;;;;;8.45;5.80;;;12.60;99.90;;;12.83;79.41;101046.53;5092851;28;20432;-70
2021/05/26 01:59:09;;;;;;;12.02;6.55;;;12.60;99.90;;;12.92;79.24;101045.53;5092945;28;20044;-71
2021/05/26 02:01:39;;;;;;;12.40;6.25;;;12.60;99.90;;;12.88;79.97;101050.00;5074761;28;20048;-71
2021/05/26 02:04:08;;;;;;;11.18;6.70;;;12.60;99.90;;;12.98;80.07;101043.69;5092784;28;20039;-71
2021/05/26 02:06:39;;;;;;;13.82;6.53;;;12.70;99.90;;;13.02;80.27;101045.44;5074560;28;20040;-71
2021/05/26 02:09:07;;;;;;;16.77;6.50;;;12.70;99.90;;;13.12;80.28;101046.22;5092741;28;20068;-71
2021/05/26 02:14:22;;;;;;;14.65;6.85;;;12.90;99.90;;;13.20;79.80;101039.91;5074522;28;20433;-71
2021/05/26 02:16:55;;;;;;;14.85;6.35;;;12.90;99.90;;;13.27;79.75;101038.97;5074497;28;20052;-71
2021/05/26 02:19:23;;;;;;;12.52;6.90;;;13.00;99.90;;;13.34;79.45;101040.63;5092261;28;20063;-71
2021/05/26 02:21:52;;;;;;;13.90;7.68;;;13.10;99.90;;;13.27;79.31;101036.31;5074708;28;20066;-71
2021/05/26 02:24:21;;;;;;;16.02;7.65;;;13.00;99.90;;;13.27;79.23;101040.72;5092468;28;20051;-71
2021/05/26 02:26:49;;;;;;;15.43;7.95;;;13.00;99.90;;;13.32;79.44;101034.44;5074202;28;20052;-71
2021/05/26 02:29:18;;;;;;;17.48;7.95;;;13.00;99.90;;;13.20;79.85;101028.44;5074267;28;20139;-71
2021/05/26 02:31:46;;;;;;;13.52;6.53;;;12.90;99.90;;;13.20;80.43;101037.25;5092481;28;20370;-71
2021/05/26 02:34:14;;;;;;;13.48;6.68;;;12.90;99.90;;;13.25;80.63;101022.16;5092155;28;20051;-71
2021/05/26 02:36:43;;;;;;;13.90;6.82;;;12.90;99.90;;;13.13;81.36;101021.41;5074247;28;20044;-71
2021/05/26 02:39:12;;;;;;;11.40;7.32;;;12.80;99.90;;;13.19;81.11;101016.03;5092632;28;20131;-71
2021/05/26 02:41:41;;;;;;;14.80;6.72;;;12.80;99.90;;;13.09;81.09;101020.59;5092362;28;20054;-71
2021/05/26 02:44:14;;;;;;;16.88;7.05;;;12.80;99.90;;;13.11;81.15;101021.44;5092667;28;20044;-71
2021/05/26 02:46:43;;;;;;;13.60;7.00;;;12.80;99.90;;;13.08;81.26;101009.97;5092359;28;20113;-72
2021/05/26 02:49:11;;;;;;;14.82;6.57;;;12.70;99.90;;;13.12;81.26;101012.59;5091954;28;20497;-71
2021/05/26 02:51:40;;;;;;;14.77;7.65;;;12.80;99.90;;;13.04;81.59;101011.81;5074185;28;20044;-72
2021/05/26 02:54:11;;;;;;;13.07;7.68;;;12.70;99.90;;;12.94;81.78;101010.13;5074164;28;20040;-72
2021/05/26 02:56:43;;;;;;;24.33;7.70;;;12.60;99.90;;;12.90;82.12;101007.50;5074049;28;20085;-72
2021/05/26 02:59:21;;;;;;;17.30;7.57;;;12.60;99.90;;;12.93;82.24;101000.38;5094206;28;20048;-72
2021/05/26 03:02:11;;;;;;;17.77;8.00;;;12.60;99.90;;;12.88;82.42;101006.66;5095702;28;20501;-72
2021/05/26 03:04:52;;;;;;;14.13;6.88;;;12.50;99.90;;;12.96;82.63;101000.34;5096395;28;20044;-73
2021/05/26 03:07:20;;;;;;;17.23;6.68;;;12.60;99.90;;;12.96;82.57;101003.00;5077968;28;20058;-72
2021/05/26 03:09:49;;;;;;;22.20;7.43;;;12.60;99.90;;;12.85;82.88;100993.41;5078027;28;20056;-72
2021/05/26 03:12:22;;;;;;;23.50;8.68;;;12.60;99.90;;;12.86;83.31;100998.69;5077629;28;20059;-72
2021/05/26 03:14:55;;;;;;;19.90;8.10;;;12.50;99.90;;;12.84;83.14;100992.53;5095636;28;20497;-72
2021/05/26 03:17:28;;;;;;;17.67;7.07;;;12.50;99.90;;;12.87;83.30;101000.47;5095536;28;20501;-72
2021/05/26 03:19:59;;;;;;;25.63;7.93;;;12.50;99.90;;;12.84;83.51;100996.94;5077226;28;20059;-72
2021/05/26 03:22:36;;;;;;;16.88;7.03;;;12.50;99.90;;;12.80;83.90;101000.53;5095776;28;20493;-71
2021/05/26 03:25:10;;;;;;;26.30;8.13;;;12.50;99.90;;;12.82;83.72;100989.00;5095730;28;20051;-72
2021/05/26 03:27:39;;;;;;;18.10;7.57;;;12.50;99.90;;;12.77;83.73;100993.50;5095844;28;20064;-72
2021/05/26 03:30:11;;;;;;;18.27;7.60;;;12.40;99.90;;;12.82;83.70;100998.75;5095658;28;20116;-71
2021/05/26 03:32:41;;;;;;;23.15;7.63;;;12.50;99.90;;;12.68;83.77;100982.97;5095394;28;20039;-72
2021/05/26 03:35:12;;;;;;;22.02;7.45;;;12.40;99.90;;;12.74;83.53;100985.56;5077411;28;20070;-71
2021/05/26 03:37:41;;;;;;;17.33;6.95;;;12.40;99.90;;;12.74;83.72;100995.31;5095641;28;20051;-71
2021/05/26 03:40:14;;;;;;;19.30;6.55;;;12.40;99.90;;;12.69;83.44;100988.28;5095138;28;20481;-71
2021/05/26 03:42:48;;;;;;;21.17;7.60;;;12.40;99.90;;;12.78;83.53;100987.28;5095333;28;20048;-71
2021/05/26 03:45:32;;;;;;;19.15;7.38;;;12.40;99.90;;;12.74;83.16;100972.28;5077103;28;20044;-73
2021/05/26 03:48:01;;;;;;;16.77;7.20;;;12.50;99.90;;;12.76;83.30;100990.84;5077048;28;20048;-71
2021/05/26 03:50:30;;;;;;;16.97;7.03;;;12.50;99.90;;;12.77;83.38;100990.84;5077004;28;20113;-71
2021/05/26 03:52:59;;;;;;;16.70;6.65;;;12.40;99.90;;;12.70;83.64;100989.16;5095141;28;20040;-71
2021/05/26 03:55:28;;;;;;;20.83;7.85;;;12.40;99.90;;;12.73;83.64;100991.78;5094999;28;20051;-71
2021/05/26 03:58:16;;;;;;;15.77;7.45;;;12.40;99.90;;;12.74;83.70;100985.56;5095018;28;20070;-71
2021/05/26 04:00:47;;;;;;;21.60;8.20;;;12.40;99.90;;;12.72;83.52;100990.00;5076702;28;20048;-71
2021/05/26 04:03:19;;;;;;;16.58;7.40;;;12.40;99.90;;;12.65;83.81;100985.69;5095003;28;20047;-71
2021/05/26 04:05:47;;;;;;;22.77;7.95;;;12.30;99.90;;;12.65;83.95;100980.38;5095200;28;20055;-71
2021/05/26 04:08:15;;;;;;;23.98;9.20;;;12.40;99.90;;;12.63;84.11;100985.69;5076707;28;20052;-71
2021/05/26 04:10:43;;;;;;;21.10;8.57;;;12.40;99.90;;;12.57;84.30;100982.22;5093591;28;20123;-68
2021/05/26 04:13:26;;;;;;;18.40;8.80;;;12.30;99.90;;;12.63;84.33;100979.50;5076583;28;20440;-70
2021/05/26 04:15:58;;;;;;;24.02;9.95;;;12.30;99.90;;;12.72;84.01;100984.69;5094734;28;20050;-69
2021/05/26 04:18:52;;;;;;;18.98;9.57;;;12.40;99.90;;;12.53;84.19;100970.78;5091094;28;20064;-69
2021/05/26 04:21:20;;;;;;;20.50;10.52;;;12.40;99.90;;;12.57;83.97;100974.25;5094656;28;20048;-69
2021/05/26 04:23:49;;;;;;;24.13;10.68;;;12.30;99.90;;;12.69;84.10;100987.41;5094517;28;20401;-68
2021/05/26 04:26:18;;;;;;;27.83;10.07;;;12.30;99.90;;;12.72;83.93;100987.34;5094129;28;20071;-68
2021/05/26 04:28:47;;;;;;;17.45;9.52;;;12.40;99.90;;;12.73;84.07;100988.25;5076303;28;20056;-69
2021/05/26 04:31:17;;;;;;;21.20;9.85;;;12.40;99.90;;;12.80;83.69;100984.59;5094161;28;20135;-70
2021/05/26 04:33:45;;;;;;;21.73;10.75;;;12.50;99.90;;;12.72;83.88;100987.34;5075812;28;20048;-69
2021/05/26 04:36:13;;;;;;;19.30;10.23;;;12.40;99.90;;;12.67;84.00;100994.50;5076051;28;20070;-70
2021/05/26 04:38:41;;;;;;;22.58;10.15;;;12.40;99.90;;;12.69;83.77;100984.75;5076110;28;20058;-68
2021/05/26 04:41:13;;;;;;;18.27;9.63;;;12.40;99.90;;;12.70;83.99;100984.72;5094392;28;20401;-71
2021/05/26 04:43:41;;;;;;;24.65;10.60;;;12.40;99.90;;;12.68;84.06;100986.53;5076019;28;20044;-69
2021/05/26 04:46:10;;;;;;;24.50;10.30;;;12.40;99.90;;;12.64;84.22;100984.78;5075916;28;20043;-70
2021/05/26 04:48:39;;;;;;;25.52;11.10;;;12.40;99.90;;;12.79;83.96;100985.53;5094061;28;20048;-69
2021/05/26 04:51:07;;;;;;;29.33;9.80;;;12.40;99.90;;;12.84;84.18;100987.22;5094049;28;20044;-70
2021/05/26 04:53:35;;;;;;;22.30;10.07;;;12.50;99.90;;;12.88;83.75;100996.03;5094036;28;20113;-70
2021/05/26 04:56:04;;;;;;;21.95;10.98;;;12.50;99.90;;;12.75;83.86;100971.41;5093534;28;20043;-70
2021/05/26 04:58:31;;;;;;;21.83;9.85;;;12.60;99.90;;;12.90;83.90;100987.16;5093626;28;20086;-69
2021/05/26 05:01:00;;;;;;;19.00;10.23;;;12.60;99.90;;;12.98;83.79;100985.28;5093696;28;20056;-70
2021/05/26 05:03:28;;;;;;;20.35;10.18;;;12.60;99.90;;;12.88;83.86;100986.28;5094077;28;20052;-70
2021/05/26 05:05:56;;;;;;;29.30;10.80;;;12.60;99.90;;;12.90;83.92;100991.56;5093468;28;20109;-70
2021/05/26 05:08:24;;;;;;;20.45;10.80;;;12.60;99.90;;;12.99;84.01;100984.38;5093322;28;20044;-69
2021/05/26 05:10:54;;;;;;;20.40;10.07;;;12.60;99.90;;;12.98;83.45;100987.94;5093573;28;20424;-69
2021/05/26 05:13:22;;;;;;;22.90;10.45;;;12.60;99.90;;;12.73;83.21;100944.00;5093663;28;20048;-70
2021/05/26 05:15:50;;;;;;;21.95;10.80;;;12.70;99.90;;;12.91;83.40;100982.72;5093314;28;20440;-69
2021/05/26 05:18:18;;;;;;;20.95;9.75;;;12.60;99.90;;;12.97;83.34;100987.97;5093483;28;20036;-70
2021/05/26 05:20:46;;;;;;;19.42;10.75;;;12.60;99.90;;;12.97;83.12;100983.50;5093451;28;20059;-70
2021/05/26 05:23:15;;;;;;;20.33;10.40;;;12.60;99.90;;;12.89;83.15;100977.41;5075051;28;20048;-70
2021/05/26 05:25:43;;;;;;;20.73;10.40;;;12.60;99.90;;;12.93;83.13;100973.81;5092974;28;20401;-70
2021/05/26 05:28:11;;;;;;;22.35;10.68;;;12.60;99.90;;;12.93;83.13;100980.94;5093324;28;20047;-69
2021/05/26 05:30:39;;;;;;;17.83;9.82;;;12.60;99.90;;;12.98;83.12;100981.75;5093097;28;20500;-70
2021/05/26 05:33:07;;;;;;;24.30;10.80;;;12.70;99.90;;;12.90;83.19;100976.53;5093273;28;20040;-70
2021/05/26 05:35:35;;;;;;;16.48;10.07;;;12.60;99.90;;;12.84;83.11;100979.25;5092886;28;20044;-69
2021/05/26 05:38:04;;;;;;;21.05;10.88;;;12.60;99.90;;;12.89;83.26;100980.06;5093059;28;20341;-70
2021/05/26 05:40:32;;;;;;;16.27;10.23;;;12.60;99.90;;;12.88;83.25;100978.31;5092648;28;20118;-69
2021/05/26 05:43:00;;;;;;;23.33;11.10;;;12.60;99.90;;;12.92;83.39;100984.47;5092904;28;20413;-69
2021/05/26 05:45:28;;;;;;;18.95;11.23;;;12.60;99.90;;;12.90;83.43;100973.00;5074858;28;20043;-70
2021/05/26 05:47:56;;;;;;;19.90;11.00;;;12.60;99.90;;;12.75;83.33;100960.78;5092960;28;20052;-69
2021/05/26 05:50:24;;;;;;;20.38;10.73;;;12.60;99.90;;;12.56;83.55;100933.56;5092956;28;20142;-69
2021/05/26 05:52:52;;;;;;;18.67;11.57;;;12.50;99.90;;;12.76;84.02;100981.13;5092556;28;20521;-69
2021/05/26 05:55:20;;;;;;;23.08;12.88;;;12.40;99.90;;;12.83;84.12;100980.16;5074685;28;20047;-69
2021/05/26 05:57:49;;;;;;;21.27;11.90;;;12.50;99.90;;;12.77;84.16;100980.25;5092856;28;20083;-69
2021/05/26 06:00:19;;;;;;;21.33;12.73;;;12.50;99.90;;;12.77;84.33;100996.16;5092820;28;20066;-69
2021/05/26 06:02:47;;;;;;;20.27;12.25;;;12.50;99.90;;;12.75;84.47;100978.50;5074229;28;20044;-69
2021/05/26 06:05:15;;;;;;;23.80;12.80;;;12.50;99.90;;;12.83;84.81;100971.31;5092939;28;20470;-69
2021/05/26 06:07:43;;;;;;;21.75;13.05;;;12.50;99.90;;;12.65;84.58;100969.75;5074430;28;20389;-69
2021/05/26 06:10:12;;;;;;;22.13;13.07;;;12.40;99.90;;;12.67;85.09;100973.28;5074383;28;20055;-69
2021/05/26 06:12:40;;;;;;;22.02;13.15;;;12.40;99.90;;;12.77;84.82;100980.25;5092462;28;20044;-69
2021/05/26 06:15:12;;;;;;;21.35;13.35;;;12.40;99.90;;;12.82;85.22;100982.81;5092870;28;20115;-70
2021/05/26 06:17:40;;;;;;;22.55;13.25;;;12.50;99.90;;;12.97;85.06;100967.59;5092558;28;20409;-69
2021/05/26 06:20:10;;;;;;;23.88;12.88;;;12.60;99.90;;;13.00;84.90;100964.91;5092144;28;20052;-69
2021/05/26 06:22:38;;;;;;;19.50;13.88;;;12.70;99.90;;;13.13;84.83;100968.31;5074256;28;20052;-69
2021/05/26 06:25:09;;;;;;;25.83;13.25;;;12.80;99.90;;;13.30;84.88;100974.25;5092449;28;20055;-69
2021/05/26 06:27:37;;;;;;;20.42;12.85;;;12.90;99.90;;;13.55;84.92;100973.88;5092076;28;20040;-69
2021/05/26 06:30:07;;;;;;;25.40;12.60;;;13.20;99.90;;;13.75;84.30;100973.59;5092393;28;20036;-69
2021/05/26 06:32:36;;;;;;;18.83;12.65;;;13.40;99.90;;;13.75;83.56;100967.38;5092224;28;20040;-69
2021/05/26 06:35:06;;;;;;;19.23;12.05;;;13.50;99.90;;;13.86;82.95;100970.78;5096142;28;20390;-69
2021/05/26 06:37:34;;;;;;;23.40;11.77;;;13.60;99.90;;;13.96;82.72;100965.25;5078299;28;20075;-69
2021/05/26 06:40:05;;;;;;;21.85;11.80;;;13.60;99.90;;;14.05;82.33;100974.88;5096009;28;20409;-70
2021/05/26 06:42:33;;;;;;;19.23;12.38;;;13.70;99.90;;;14.15;81.97;100981.81;5096550;28;20120;-70
2021/05/26 06:45:02;;;;;;;19.08;10.68;;;13.80;99.90;;;14.14;81.75;100954.31;5096259;28;20048;-69
2021/05/26 06:47:30;;;;;;;20.42;11.82;;;13.90;99.90;;;14.22;81.33;100972.81;5096146;28;20044;-69
2021/05/26 06:49:59;;;;;;;19.95;11.40;;;14.00;99.90;;;14.24;80.62;100984.31;5096287;28;20048;-70
2021/05/26 06:52:27;;;;;;;20.00;10.75;;;13.90;99.90;;;14.26;80.94;100964.75;5096088;28;20040;-69
2021/05/26 06:54:54;;;;;;;18.40;10.15;;;13.90;99.90;;;14.35;80.59;100974.38;5096055;28;20051;-69
2021/05/26 06:57:23;;;;;;;17.92;10.25;;;14.00;99.90;;;14.31;79.85;100978.88;5077443;28;20518;-69
2021/05/26 06:59:51;;;;;;;16.90;8.98;;;14.00;99.90;;;14.25;78.90;100978.06;5095956;28;20063;-69
2021/05/26 07:02:19;;;;;;;12.60;7.55;;;14.00;99.90;;;14.36;78.44;100981.47;5095701;28;20044;-69
2021/05/26 07:04:47;;;;;;;16.33;6.90;;;14.00;99.90;;;14.53;77.50;100979.38;5095904;28;20090;-68
2021/05/26 07:07:16;;;;;;;15.60;6.57;;;14.20;99.90;;;14.61;76.54;100985.44;5095827;28;20052;-69
2021/05/26 07:09:43;;;;;;;12.55;6.57;;;14.30;99.90;;;14.85;75.93;100979.59;5095886;28;20048;-68
2021/05/26 07:12:11;;;;;;;9.27;6.72;;;14.50;99.90;;;14.82;74.23;100977.03;5095802;28;20044;-69
2021/05/26 07:14:39;;;;;;;15.48;6.60;;;14.50;99.90;;;14.95;74.24;100983.84;5095851;28;20093;-69
2021/05/26 07:17:07;;;;;;;14.00;6.75;;;14.70;99.90;;;15.10;74.53;100975.53;5095604;28;20058;-69
2021/05/26 07:19:35;;;;;;;13.85;6.07;;;14.80;99.90;;;15.14;73.52;100981.66;5095355;28;20076;-69
2021/05/26 07:22:04;;;;;;;19.25;6.57;;;14.90;99.90;;;15.17;73.22;100965.63;5095689;28;20051;-70
2021/05/26 07:24:33;;;;;;;21.35;7.32;;;15.00;99.90;;;15.35;73.04;100983.84;5095240;28;20428;-69
2021/05/26 07:27:01;;;;;;;16.33;6.20;;;15.10;99.90;;;15.30;71.53;100983.09;5095189;28;20127;-69
2021/05/26 07:29:29;;;;;;;15.02;8.02;;;15.00;99.90;;;15.29;70.75;100995.53;5095478;28;20159;-68
2021/05/26 07:31:58;;;;;;;38.75;22.10;;;15.00;99.90;;;15.19;70.89;100980.66;5095203;28;20055;-70
2021/05/26 07:34:26;;;;;;;23.98;11.32;;;15.00;99.90;;;14.95;70.50;100980.28;5095120;28;20105;-69
2021/05/26 07:36:54;;;;;;;14.55;7.13;;;14.70;99.90;;;14.85;69.80;100984.94;5095361;28;20128;-66
2021/05/26 07:39:24;;;;;;;15.40;5.78;;;14.60;99.90;;;14.82;70.33;100982.34;5095235;28;20071;-66
2021/05/26 07:41:52;;;;;;;13.68;5.95;;;14.60;99.90;;;14.66;70.13;100980.88;5095221;28;20181;-66
2021/05/26 07:44:20;;;;;;;10.52;7.13;;;14.50;99.90;;;14.53;71.03;100986.47;5094885;28;20423;-67
2021/05/26 07:46:48;;;;;;;12.63;6.38;;;14.40;99.90;;;14.55;71.18;100987.31;5075862;28;20048;-67
2021/05/26 07:49:17;;;;;;;15.73;6.13;;;14.30;99.90;;;14.48;70.19;100987.44;5094801;28;20040;-67
2021/05/26 07:51:49;;;;;;;10.13;6.30;;;14.20;99.90;;;14.07;71.24;100968.63;5094747;28;20051;-67
2021/05/26 07:54:18;;;;;;;11.75;5.82;;;14.00;99.90;;;13.92;71.14;100986.59;5076849;28;20409;-67
2021/05/26 07:56:46;;;;;;;10.38;6.07;;;13.80;99.90;;;13.82;72.27;100990.34;5094392;28;20044;-67
2021/05/26 07:59:15;;;;;;;12.50;5.90;;;13.60;99.90;;;13.71;72.79;100990.50;5094490;28;20044;-67
2021/05/26 08:01:43;;;;;;;10.52;6.30;;;13.60;99.90;;;13.42;72.69;100987.38;5076106;28;20044;-67
2021/05/26 08:04:11;;;;;;;12.68;6.07;;;13.30;99.90;;;13.23;74.14;100991.19;5095075;28;20135;-67
2021/05/26 08:06:39;;;;;;;11.88;5.90;;;13.10;99.90;;;13.43;73.65;100991.81;5094848;28;20060;-67
2021/05/26 08:09:07;;;;;;;10.95;7.07;;;13.20;99.90;;;13.47;73.82;100985.56;5094843;28;20077;-67
2021/05/26 08:11:35;;;;;;;13.07;6.70;;;13.20;99.90;;;13.62;73.83;100990.63;5094615;28;20485;-66
2021/05/26 08:14:04;;;;;;;13.88;6.85;;;13.40;99.90;;;13.95;74.22;100999.88;5094874;28;20056;-67
2021/05/26 08:16:33;;;;;;;9.85;6.28;;;13.70;99.90;;;14.13;73.69;100996.91;5094337;28;20226;-66
2021/05/26 08:19:01;;;;;;;10.00;6.00;;;13.90;99.90;;;14.57;73.98;100993.50;5094492;28;20210;-66
2021/05/26 08:21:29;;;;;;;12.75;5.80;;;14.30;99.90;;;14.56;70.77;100992.59;5094423;28;20143;-67
2021/05/26 08:23:57;;;;;;;14.73;6.10;;;14.40;99.90;;;14.56;70.52;100995.25;5094665;28;20056;-66
2021/05/26 08:26:25;;;;;;;11.27;6.45;;;14.40;99.90;;;14.75;69.88;100991.34;5094312;28;20044;-67
2021/05/26 08:28:54;;;;;;;11.13;5.65;;;14.50;99.90;;;14.86;69.55;100989.38;5094034;28;20493;-66
2021/05/26 08:31:22;;;;;;;14.32;6.22;;;14.60;99.90;;;15.13;69.00;100987.91;5093719;28;20123;-66
2021/05/26 08:33:51;;;;;;;11.82;6.30;;;14.90;99.90;;;15.14;66.50;100963.91;5094358;28;20136;-67
2021/05/26 08:36:20;;;;;;;9.82;6.00;;;15.10;99.90;;;15.25;66.51;100993.84;5094391;28;20135;-67
2021/05/26 08:38:48;;;;;;;10.55;5.70;;;15.10;99.90;;;15.24;67.50;100986.78;5094273;28;20131;-66
2021/05/26 08:41:19;;;;;;;11.65;5.90;;;15.10;99.90;;;14.82;68.28;100987.69;5093837;28;20409;-66
2021/05/26 08:43:47;;;;;;;11.02;5.53;;;14.80;99.90;;;14.46;68.92;100988.34;5093898;28;20051;-65
2021/05/26 08:46:15;;;;;;;17.65;7.18;;;14.40;99.90;;;14.53;69.55;100995.34;5093862;28;20158;-72
2021/05/26 08:48:45;;;;;;;57.28;29.33;;;14.40;99.90;;;14.74;69.42;100984.28;5093906;28;20052;-71
2021/05/26 08:51:17;;;;;;;19.58;7.75;;;14.60;99.90;;;14.92;69.13;100986.59;5094135;28;20048;-72
2021/05/26 08:53:46;;;;;;;14.13;6.43;;;14.70;99.90;;;15.10;68.41;100983.53;5093539;28;20052;-72
2021/05/26 08:56:14;;;;;;;9.95;5.80;;;14.90;99.90;;;14.96;66.90;100955.44;5093277;28;20048;-77
2021/05/26 08:58:43;;;;;;;9.95;5.20;;;15.00;99.90;;;15.27;67.16;100973.38;5093917;28;20075;-79
2021/05/26 09:01:14;;;;;;;11.30;5.32;;;15.20;99.90;;;15.62;66.20;100982.41;5093610;28;20048;-78
2021/05/26 09:03:43;;;;;;;10.32;5.38;;;15.40;99.90;;;15.74;64.68;100988.31;5093578;28;20074;-79
2021/05/26 09:06:13;;;;;;;10.90;5.47;;;15.50;99.90;;;15.76;63.82;100974.94;5093398;28;20051;-82
2021/05/26 09:08:50;;;;;;;6.93;4.75;;;15.60;99.90;;;15.79;63.79;100980.22;5093850;28;20052;-73
2021/05/26 09:11:30;;;;;;;10.68;5.72;;;15.60;99.90;;;15.71;63.93;100961.75;5092847;28;20508;-74
2021/05/26 09:14:10;;;;;;;10.57;5.05;;;15.60;99.90;;;15.75;63.70;100990.09;5093799;28;20055;-75
2021/05/26 09:16:38;;;;;;;8.73;5.00;;;15.50;99.90;;;15.64;64.27;100978.78;5093213;28;20091;-73
2021/05/26 09:19:09;;;;;;;9.30;5.25;;;15.50;99.90;;;15.32;65.64;100974.16;5093305;28;20404;-75
2021/05/26 09:21:43;;;;;;;12.57;6.05;;;15.20;99.90;;;14.77;66.46;100946.91;5093072;28;20131;-77
2021/05/26 09:24:38;;;;;;;9.68;5.95;;;14.80;99.90;;;14.90;68.49;100984.84;5093920;28;20112;-76
2021/05/26 09:27:08;;;;;;;13.95;6.32;;;14.70;99.90;;;14.70;68.94;100966.59;5046203;28;20420;-75
2021/05/26 09:29:40;;;;;;;14.25;6.32;;;14.60;99.90;;;14.67;70.14;100982.66;5093181;28;20044;-78
2021/05/26 09:32:14;;;;;;;13.82;6.75;;;14.50;99.90;;;14.47;70.22;100976.81;5093163;28;20044;-74
2021/05/26 09:34:44;;;;;;;19.17;7.05;;;14.40;99.90;;;14.33;70.19;100970.84;5092797;28;20109;-68
2021/05/26 09:37:19;;;;;;;11.68;5.95;;;14.30;99.90;;;14.20;71.10;100986.16;5092921;28;20059;-72
2021/05/26 09:39:50;;;;;;;8.73;5.65;;;14.00;99.90;;;14.22;71.35;100983.44;5092968;28;20068;-70
2021/05/26 09:42:26;;;;;;;;;;;14.10;99.90;;;14.23;71.65;100987.84;5093552;28;20127;-77
2021/05/26 09:45:09;;;;;;;11.73;7.35;;;14.10;99.90;;;14.13;72.24;100986.28;5093412;28;19971;-77
2021/05/26 09:47:39;;;;;;;14.23;7.57;;;14.00;99.90;;;14.10;73.33;100988.97;5092975;28;20088;-77
2021/05/26 09:50:27;;;;;;;13.23;7.45;;;14.00;99.90;;;14.11;73.96;100993.41;5092917;28;20044;-77
2021/05/26 09:52:59;;;;;;;16.08;7.57;;;14.00;99.90;;;14.13;74.63;100989.78;5092553;28;20044;-77
2021/05/26 09:55:30;;;;;;;11.05;7.45;;;13.90;99.90;;;14.12;74.14;100992.50;5093109;28;20068;-77
2021/05/26 09:57:59;;;;;;;;;;;14.00;99.90;;;14.17;72.87;100996.81;5093346;28;20097;-77
2021/05/26 10:00:28;;;;;;;10.90;6.95;;;14.00;99.90;;;14.33;72.06;100985.06;5092939;28;20361;-77
2021/05/26 10:02:57;;;;;;;7.93;6.05;;;14.20;99.90;;;14.19;69.71;100988.81;5092451;28;20047;-77
2021/05/26 10:05:26;;;;;;;8.20;5.65;;;14.10;99.90;;;14.03;69.02;100972.22;5074358;28;20048;-79
2021/05/26 10:08:14;;;;;;;5.85;4.63;;;14.00;99.90;;;14.05;70.22;100999.69;5091731;28;20074;-78
2021/05/26 10:10:56;;;;;;;8.38;5.15;;;13.90;99.90;;;14.19;70.54;100997.66;5074313;28;20146;-78
2021/05/26 10:13:26;;;;;;;16.73;8.02;;;14.10;99.90;;;14.38;70.51;101006.28;5092877;28;20056;-71
2021/05/26 10:15:55;;;;;;;6.87;4.30;;;14.20;99.90;;;14.39;70.05;100997.38;5091126;28;20423;-74
2021/05/26 10:18:25;;;;;;;6.13;3.90;;;14.20;99.90;;;14.18;67.92;101003.03;5092403;28;20123;-71
2021/05/26 10:20:53;;;;;;;5.38;4.38;;;14.10;99.90;;;14.19;67.76;101010.09;5074176;28;20113;-71